createdAt,value
2022-12-17T00:02:28.060Z,96007.47
2022-12-17T00:05:13.239Z,96017.16
2022-12-17T00:07:58.286Z,96024.22
2022-12-17T00:10:43.042Z,96003.56
2022-12-17T00:13:38.344Z,95996.66
2022-12-17T00:16:23.747Z,95984.41
2022-12-17T00:19:09.026Z,95980.94
2022-12-17T00:21:54.745Z,96008.84
2022-12-17T00:24:41.279Z,95994.16
2022-12-17T00:27:26.387Z,95978.59
2022-12-17T00:30:11.335Z,95977.59
2022-12-17T00:32:56.120Z,95991.22
2022-12-17T00:35:41.396Z,95969.66
2022-12-17T00:38:26.145Z,95942.09
2022-12-17T00:41:11.734Z,95920.28
2022-12-17T00:43:56.687Z,95925.50
2022-12-17T00:46:41.755Z,95939.31
2022-12-17T00:49:26.826Z,95940.97
2022-12-17T00:52:11.662Z,95943.53
2022-12-17T00:54:56.456Z,95944.19
2022-12-17T00:57:41.573Z,95939.75
2022-12-17T01:00:27.706Z,95979.91
2022-12-17T01:03:12.586Z,95986.44
2022-12-17T01:05:57.697Z,95946.84
2022-12-17T01:08:42.725Z,95913.25
2022-12-17T01:11:27.973Z,95901.00
2022-12-17T01:14:12.678Z,95900.00
2022-12-17T01:16:57.487Z,95928.78
2022-12-17T01:19:42.274Z,95916.53
2022-12-17T01:22:26.917Z,95910.34
2022-12-17T01:25:11.684Z,95904.06
2022-12-17T01:27:56.493Z,95942.38
2022-12-17T01:30:41.581Z,95939.88
2022-12-17T01:33:26.592Z,95904.47
2022-12-17T01:36:15.706Z,95889.69
2022-12-17T01:39:00.738Z,95892.97
2022-12-17T01:41:45.707Z,95902.34
2022-12-17T01:44:55.777Z,95915.91
2022-12-17T01:47:40.765Z,95930.56
2022-12-17T01:50:25.761Z,95950.22
2022-12-17T01:53:10.908Z,95963.72
2022-12-17T01:55:56.014Z,95986.38
2022-12-17T01:58:41.069Z,96005.06
2022-12-17T02:01:26.086Z,96010.34
2022-12-17T02:04:11.118Z,96020.59
2022-12-17T02:06:56.116Z,96022.28
2022-12-17T02:09:48.303Z,96022.19
2022-12-17T02:13:01.530Z,96010.06
2022-12-17T02:16:17.385Z,96024.53
2022-12-17T02:19:08.060Z,96028.75
2022-12-17T02:21:53.016Z,96044.13
2022-12-17T02:25:16.343Z,96054.38
2022-12-17T02:28:01.100Z,96064.63
2022-12-17T02:30:46.065Z,96082.91
2022-12-17T02:33:31.247Z,96073.41
2022-12-17T02:36:18.239Z,96079.38
2022-12-17T02:39:03.259Z,96080.16
2022-12-17T02:41:49.791Z,96075.03
2022-12-17T02:44:35.896Z,96072.47
2022-12-17T02:47:22.361Z,96085.31
2022-12-17T02:50:07.346Z,96093.91
2022-12-17T02:52:52.669Z,96120.19
2022-12-17T02:55:37.720Z,96123.50
2022-12-17T02:58:22.461Z,96128.63
2022-12-17T03:01:07.476Z,96146.81
2022-12-17T03:03:52.683Z,96159.84
2022-12-17T03:06:37.522Z,96160.69
2022-12-17T03:09:22.592Z,96152.75
2022-12-17T03:12:07.539Z,96157.88
2022-12-17T03:14:52.577Z,96159.53
2022-12-17T03:17:37.583Z,96158.53
2022-12-17T03:20:23.701Z,96159.38
2022-12-17T03:23:25.241Z,96162.88
2022-12-17T03:26:10.259Z,96181.72
2022-12-17T03:28:55.250Z,96186.84
2022-12-17T03:31:40.260Z,96187.72
2022-12-17T03:34:25.209Z,96187.72
2022-12-17T03:37:10.099Z,96188.50
2022-12-17T03:39:55.090Z,96185.03
2022-12-17T03:42:39.771Z,96184.13
2022-12-17T03:45:25.066Z,96175.50
2022-12-17T03:48:10.262Z,96186.69
2022-12-17T03:50:55.158Z,96183.38
2022-12-17T03:53:40.124Z,96173.06
2022-12-17T03:56:24.804Z,96159.97
2022-12-17T03:59:09.606Z,96160.75
2022-12-17T04:01:54.531Z,96167.53
2022-12-17T04:04:39.633Z,96178.06
2022-12-17T04:07:24.344Z,96170.69
2022-12-17T04:10:09.099Z,96157.72
2022-12-17T04:12:54.188Z,96163.84
2022-12-17T04:15:39.167Z,96173.69
2022-12-17T04:18:24.278Z,96149.72
2022-12-17T04:21:08.950Z,96132.38
2022-12-17T04:23:54.036Z,96111.72
2022-12-17T04:26:38.708Z,96102.97
2022-12-17T04:29:23.512Z,96114.81
2022-12-17T04:32:08.405Z,96120.78
2022-12-17T04:34:53.338Z,96146.09
2022-12-17T04:37:38.235Z,96146.09
2022-12-17T04:40:23.658Z,96133.88
2022-12-17T04:43:08.642Z,96128.75
2022-12-17T04:45:53.401Z,96121.91
2022-12-17T04:48:41.572Z,96120.84
2022-12-17T04:51:26.411Z,96119.88
2022-12-17T04:54:11.485Z,96120.53
2022-12-17T04:56:56.224Z,96128.16
2022-12-17T04:59:40.852Z,96145.38
2022-12-17T05:02:25.703Z,96160.75
2022-12-17T05:05:10.684Z,96181.28
2022-12-17T05:07:55.379Z,96191.66
2022-12-17T05:10:40.401Z,96201.00
2022-12-17T05:13:25.190Z,96217.31
2022-12-17T05:16:14.472Z,96224.09
2022-12-17T05:18:59.596Z,96217.25
2022-12-17T05:21:44.613Z,96232.56
2022-12-17T05:24:29.587Z,96244.59
2022-12-17T05:27:14.367Z,96259.19
2022-12-17T05:29:59.560Z,96271.22
2022-12-17T05:32:44.300Z,96277.34
2022-12-17T05:35:29.205Z,96285.94
2022-12-17T05:38:14.168Z,96290.28
2022-12-17T05:40:59.202Z,96286.75
2022-12-17T05:43:44.138Z,96282.47
2022-12-17T05:46:29.397Z,96285.03
2022-12-17T05:49:14.574Z,96294.53
2022-12-17T05:51:59.326Z,96315.19
2022-12-17T05:54:44.134Z,96323.72
2022-12-17T05:57:29.115Z,96334.72
2022-12-17T06:00:14.216Z,96334.72
2022-12-17T06:02:59.264Z,96345.81
2022-12-17T06:05:44.460Z,96353.56
2022-12-17T06:08:29.588Z,96363.00
2022-12-17T06:11:17.347Z,96358.63
2022-12-17T06:14:02.550Z,96363.66
2022-12-17T06:16:47.871Z,96379.22
2022-12-17T06:19:32.897Z,96380.03
2022-12-17T06:22:17.633Z,96359.09
2022-12-17T06:25:02.349Z,96328.06
2022-12-17T06:27:47.197Z,96314.88
2022-12-17T06:30:31.963Z,96301.06
2022-12-17T06:33:27.353Z,96325.94
2022-12-17T06:36:19.717Z,96343.16
2022-12-17T06:39:06.829Z,96359.66
2022-12-17T06:41:52.031Z,96374.22
2022-12-17T06:44:37.187Z,96384.59
2022-12-17T06:47:21.864Z,96400.91
2022-12-17T06:50:06.573Z,96403.47
2022-12-17T06:52:51.438Z,96406.03
2022-12-17T06:55:36.224Z,96404.16
2022-12-17T06:58:21.276Z,96399.72
2022-12-17T07:01:06.397Z,96397.63
2022-12-17T07:03:51.382Z,96422.47
2022-12-17T07:06:36.631Z,96457.53
2022-12-17T07:09:21.331Z,96483.31
2022-12-17T07:12:06.067Z,96491.91
2022-12-17T07:14:50.946Z,96514.25
2022-12-17T07:17:52.418Z,96534.91
2022-12-17T07:20:37.458Z,96540.16
2022-12-17T07:23:22.187Z,96547.09
2022-12-17T07:26:07.111Z,96547.09
2022-12-17T07:28:52.061Z,96556.50
2022-12-17T07:31:37.274Z,96552.22
2022-12-17T07:34:22.007Z,96559.00
2022-12-17T07:37:06.855Z,96556.44
2022-12-17T07:39:51.547Z,96569.25
2022-12-17T07:42:36.481Z,96567.59
2022-12-17T07:45:21.449Z,96564.97
2022-12-17T07:48:13.082Z,96557.06
2022-12-17T07:50:57.841Z,96544.06
2022-12-17T07:53:43.004Z,96548.06
2022-12-17T07:56:27.865Z,96560.91
2022-12-17T07:59:12.753Z,96578.72
2022-12-17T08:01:57.590Z,96586.44
2022-12-17T08:04:42.817Z,96592.31
2022-12-17T08:07:27.781Z,96588.88
2022-12-17T08:10:12.696Z,96583.59
2022-12-17T08:12:57.591Z,96576.78
2022-12-17T08:15:42.274Z,96575.00
2022-12-17T08:18:27.151Z,96571.38
2022-12-17T08:21:12.274Z,96568.69
2022-12-17T08:23:57.326Z,96589.44
2022-12-17T08:26:47.542Z,96591.16
2022-12-17T08:29:33.195Z,96598.09
2022-12-17T08:32:18.325Z,96598.72
2022-12-17T08:35:03.075Z,96589.72
2022-12-17T08:37:48.980Z,96596.25
2022-12-17T08:40:33.707Z,96596.00
2022-12-17T08:43:18.626Z,96603.63
2022-12-17T08:46:07.130Z,96623.81
2022-12-17T08:48:52.168Z,96667.31
2022-12-17T08:51:37.198Z,96738.97
2022-12-17T08:54:22.501Z,96822.53
2022-12-17T08:57:07.541Z,96871.28
2022-12-17T08:59:52.500Z,96926.81
2022-12-17T09:02:37.560Z,97009.78
2022-12-17T09:05:36.415Z,97075.84
2022-12-17T09:08:22.851Z,97147.47
2022-12-17T09:11:08.056Z,97220.91
2022-12-17T09:13:52.917Z,97279.06
2022-12-17T09:16:38.510Z,97328.69
2022-12-17T09:19:24.176Z,97403.25
2022-12-17T09:22:08.858Z,97477.59
2022-12-17T09:24:54.107Z,97534.97
2022-12-17T09:27:39.074Z,97578.47
2022-12-17T09:30:24.268Z,97616.06
2022-12-17T09:33:09.317Z,97648.50
2022-12-17T09:35:56.973Z,97716.19
2022-12-17T09:38:41.709Z,97820.00
2022-12-17T09:41:44.855Z,97885.00
2022-12-17T09:44:40.224Z,97907.22
2022-12-17T09:47:58.665Z,97932.09
2022-12-17T09:50:43.748Z,97952.63
2022-12-17T09:53:55.553Z,97987.69
2022-12-17T09:56:42.139Z,98055.38
2022-12-17T09:59:33.869Z,98099.00
2022-12-17T10:02:21.563Z,98145.13
2022-12-17T10:05:06.804Z,98186.16
2022-12-17T10:07:54.458Z,98208.41
2022-12-17T10:11:04.442Z,98225.53
2022-12-17T10:13:49.718Z,98316.34
2022-12-17T10:16:43.725Z,98390.00
2022-12-17T10:19:47.611Z,98456.84
2022-12-17T10:22:33.532Z,98451.66
2022-12-17T10:25:24.162Z,98429.25
2022-12-17T10:28:09.101Z,98421.44
2022-12-17T10:30:54.685Z,98422.28
2022-12-17T10:33:39.892Z,98436.81
2022-12-17T10:36:39.204Z,98492.47
2022-12-17T10:39:24.801Z,98499.31
2022-12-17T10:42:09.851Z,98558.44
2022-12-17T10:44:56.213Z,98615.91
2022-12-17T10:47:42.339Z,98591.84
2022-12-17T10:50:40.806Z,98581.53
2022-12-17T10:53:37.870Z,98569.50
2022-12-17T10:56:23.471Z,98551.44
2022-12-17T10:59:10.598Z,98528.19
2022-12-17T11:01:56.129Z,98596.81
2022-12-17T11:04:45.265Z,98672.22
2022-12-17T11:07:34.123Z,98717.66
2022-12-17T11:10:19.689Z,98784.53
2022-12-17T11:13:14.886Z,98836.88
2022-12-17T11:16:09.257Z,98877.22
2022-12-17T11:19:17.219Z,98886.56
2022-12-17T11:22:03.985Z,98907.22
2022-12-17T11:25:00.660Z,98883.91
2022-12-17T11:27:47.898Z,98869.22
2022-12-17T11:30:33.848Z,98907.06
2022-12-17T11:33:55.744Z,98915.53
2022-12-17T11:36:42.914Z,98901.75
2022-12-17T11:39:44.239Z,98890.53
2022-12-17T11:42:37.317Z,98906.78
2022-12-17T11:45:24.801Z,98916.19
2022-12-17T11:48:16.248Z,98990.09
2022-12-17T11:51:09.536Z,99009.75
2022-12-17T11:54:13.425Z,99019.19
2022-12-17T11:57:06.287Z,99075.91
2022-12-17T11:59:56.134Z,99104.16
2022-12-17T12:02:56.918Z,99109.31
2022-12-17T12:06:08.745Z,99096.34
2022-12-17T12:09:26.684Z,99070.59
2022-12-17T12:12:14.590Z,99093.75
2022-12-17T12:15:21.082Z,99093.81
2022-12-17T12:18:50.431Z,99028.44
2022-12-17T12:21:45.400Z,99012.06
2022-12-17T12:24:40.109Z,99078.16
2022-12-17T12:27:42.437Z,99096.97
2022-12-17T12:30:39.408Z,99182.88
2022-12-17T12:33:39.714Z,99222.44
2022-12-17T12:36:25.585Z,99205.25
2022-12-17T12:39:12.676Z,99194.00
2022-12-17T12:42:07.400Z,99201.72
2022-12-17T12:45:01.587Z,99238.59
2022-12-17T12:47:59.053Z,99261.78
2022-12-17T12:51:02.910Z,99253.19
2022-12-17T12:53:47.661Z,99260.94
2022-12-17T12:56:52.320Z,99303.94
2022-12-17T12:59:55.429Z,99272.94
2022-12-17T13:02:43.415Z,99265.16
2022-12-17T13:05:34.412Z,99247.13
2022-12-17T13:08:22.214Z,99248.84
2022-12-17T13:10:49.149Z,99283.25
2022-12-17T13:13:15.495Z,99282.31
2022-12-17T13:15:46.993Z,99227.28
2022-12-17T13:18:33.322Z,99237.56
2022-12-17T13:21:14.932Z,99210.91
2022-12-17T13:23:41.406Z,99330.41
2022-12-17T13:26:18.357Z,99308.91
2022-12-17T13:28:50.129Z,99344.16
2022-12-17T13:31:21.859Z,99262.59
2022-12-17T13:34:23.465Z,99103.75
2022-12-17T13:37:10.839Z,99132.19
2022-12-17T13:39:54.948Z,99239.50
2022-12-17T13:42:29.460Z,99134.00
2022-12-17T13:44:56.030Z,99197.63
2022-12-17T13:47:27.829Z,99129.84
2022-12-17T13:50:31.811Z,99097.31
2022-12-17T13:52:42.441Z,99021.81
2022-12-17T13:55:10.744Z,98989.31
2022-12-17T13:57:37.406Z,98937.91
2022-12-17T14:00:04.349Z,98885.69
2022-12-17T14:02:32.559Z,98903.69
2022-12-17T14:05:04.197Z,98871.06
2022-12-17T14:07:34.763Z,98932.78
2022-12-17T14:10:02.373Z,98890.81
2022-12-17T14:12:29.953Z,98845.50
2022-12-17T14:14:57.752Z,98807.06
2022-12-17T14:17:28.692Z,98771.16
2022-12-17T14:19:59.204Z,98757.53
2022-12-17T14:22:36.421Z,98729.34
2022-12-17T14:25:03.425Z,98708.91
2022-12-17T14:27:34.548Z,98691.00
2022-12-17T14:30:01.481Z,98664.53
2022-12-17T14:32:36.009Z,98648.31
2022-12-17T14:35:02.856Z,98632.13
2022-12-17T14:37:29.378Z,98606.44
2022-12-17T14:40:00.560Z,98579.13
2022-12-17T14:42:29.152Z,98570.59
2022-12-17T14:44:56.838Z,98563.81
2022-12-17T14:47:30.958Z,98557.91
2022-12-17T14:50:12.592Z,98561.44
2022-12-17T14:52:41.640Z,98552.94
2022-12-17T14:55:34.233Z,98550.47
2022-12-17T14:58:12.759Z,98531.72
2022-12-17T15:01:14.760Z,98542.09
2022-12-17T15:03:43.044Z,98528.47
2022-12-17T15:06:10.589Z,98525.94
2022-12-17T15:08:42.769Z,98535.38
2022-12-17T15:11:11.796Z,98526.03
2022-12-17T15:13:38.189Z,98520.09
2022-12-17T15:16:05.030Z,98525.28
2022-12-17T15:18:31.427Z,98532.22
2022-12-17T15:20:57.755Z,98529.66
2022-12-17T15:23:24.365Z,98527.19
2022-12-17T15:25:51.746Z,98516.09
2022-12-17T15:28:18.824Z,98508.44
2022-12-17T15:30:45.568Z,98524.81
2022-12-17T15:33:12.042Z,98532.59
2022-12-17T15:35:38.691Z,98516.34
2022-12-17T15:38:05.458Z,98522.38
2022-12-17T15:40:31.883Z,98509.59
2022-12-17T15:43:13.781Z,98512.19
2022-12-17T15:45:41.704Z,98511.41
2022-12-17T15:48:08.735Z,98516.59
2022-12-17T15:50:35.268Z,98526.91
2022-12-17T15:53:01.665Z,98522.69
2022-12-17T15:55:28.362Z,98514.22
2022-12-17T15:57:54.733Z,98509.97
2022-12-17T16:00:21.219Z,98506.59
2022-12-17T16:02:48.822Z,98493.81
2022-12-17T16:05:15.359Z,98493.00
2022-12-17T16:07:43.392Z,98499.88
2022-12-17T16:10:11.027Z,98500.75
2022-12-17T16:12:37.428Z,98501.66
2022-12-17T16:15:04.149Z,98488.03
2022-12-17T16:17:30.509Z,98470.09
2022-12-17T16:19:56.880Z,98465.84
2022-12-17T16:22:23.241Z,98468.44
2022-12-17T16:24:49.680Z,98471.88
2022-12-17T16:27:18.083Z,98466.81
2022-12-17T16:29:45.575Z,98470.28
2022-12-17T16:32:11.941Z,98479.72
2022-12-17T16:34:38.288Z,98481.47
2022-12-17T16:37:06.706Z,98488.31
2022-12-17T16:39:33.229Z,98490.91
2022-12-17T16:41:59.595Z,98497.75
2022-12-17T16:44:25.973Z,98496.94
2022-12-17T16:46:52.377Z,98496.09
2022-12-17T16:49:20.546Z,98496.09
2022-12-17T16:51:52.309Z,98490.13
2022-12-17T16:54:20.494Z,98513.25
2022-12-17T16:56:47.017Z,98526.03
2022-12-17T16:59:14.113Z,98524.34
2022-12-17T17:01:41.218Z,98517.53
2022-12-17T17:04:08.557Z,98514.16
2022-12-17T17:06:42.255Z,98521.84
2022-12-17T17:09:08.789Z,98520.19
2022-12-17T17:11:35.142Z,98523.63
2022-12-17T17:14:01.551Z,98537.28
2022-12-17T17:16:28.018Z,98545.84
2022-12-17T17:18:54.557Z,98556.94
2022-12-17T17:21:24.447Z,98551.81
2022-12-17T17:24:01.770Z,98560.38
2022-12-17T17:26:29.363Z,98550.97
2022-12-17T17:28:56.046Z,98532.25
2022-12-17T17:31:26.633Z,98530.50
2022-12-17T17:33:57.116Z,98526.25
2022-12-17T17:36:25.280Z,98528.84
2022-12-17T17:38:52.503Z,98547.63
2022-12-17T17:41:20.200Z,98563.84
2022-12-17T17:43:46.707Z,98574.09
2022-12-17T17:46:15.142Z,98590.28
2022-12-17T17:48:43.553Z,98604.78
2022-12-17T17:51:18.104Z,98621.81
2022-12-17T17:53:48.857Z,98635.50
2022-12-17T17:56:17.170Z,98652.53
2022-12-17T17:58:53.832Z,98650.81
2022-12-17T18:01:24.957Z,98659.34
2022-12-17T18:03:51.946Z,98641.44
2022-12-17T18:06:18.405Z,98617.56
2022-12-17T18:08:44.952Z,98594.56
2022-12-17T18:11:12.243Z,98566.44
2022-12-17T18:13:56.924Z,98566.47
2022-12-17T18:16:40.527Z,98569.84
2022-12-17T18:19:15.093Z,98571.56
2022-12-17T18:21:41.715Z,98579.22
2022-12-17T18:24:11.456Z,98597.13
2022-12-17T18:26:39.491Z,98630.34
2022-12-17T18:29:09.451Z,98661.03
2022-12-17T18:31:35.851Z,98690.84
2022-12-17T18:34:02.741Z,98712.13
2022-12-17T18:36:30.992Z,98718.94
2022-12-17T18:38:58.344Z,98712.97
2022-12-17T18:41:43.505Z,98707.03
2022-12-17T18:44:09.957Z,98680.63
2022-12-17T18:46:36.550Z,98659.31
2022-12-17T18:49:06.931Z,98659.34
2022-12-17T18:51:34.532Z,98669.56
2022-12-17T18:54:01.981Z,98665.28
2022-12-17T18:56:59.314Z,98644.88
2022-12-17T18:59:15.803Z,98657.63
2022-12-17T19:01:42.465Z,98684.88
2022-12-17T19:04:10.090Z,98688.25
2022-12-17T19:06:37.230Z,98657.63
2022-12-17T19:09:03.989Z,98649.97
2022-12-17T19:11:36.887Z,98657.63
2022-12-17T19:14:05.528Z,98665.28
2022-12-17T19:16:32.014Z,98687.41
2022-12-17T19:19:00.219Z,98692.50
2022-12-17T19:21:26.817Z,98699.31
2022-12-17T19:24:03.950Z,98695.91
2022-12-17T19:26:30.869Z,98689.13
2022-12-17T19:28:57.994Z,98678.06
2022-12-17T19:31:26.308Z,98679.78
2022-12-17T19:34:00.216Z,98689.97
2022-12-17T19:36:28.585Z,98683.16
2022-12-17T19:38:56.486Z,98696.78
2022-12-17T19:41:23.185Z,98719.75
2022-12-17T19:43:54.489Z,98751.25
2022-12-17T19:46:20.945Z,98762.28
2022-12-17T19:48:48.877Z,98758.91
2022-12-17T19:51:16.520Z,98770.78
2022-12-17T19:53:43.459Z,98775.88
2022-12-17T19:56:19.718Z,98799.69
2022-12-17T19:58:47.648Z,98819.25
2022-12-17T20:01:16.564Z,98832.00
2022-12-17T20:03:44.251Z,98822.66
2022-12-17T20:06:11.400Z,98836.25
2022-12-17T20:08:38.070Z,98854.06
2022-12-17T20:11:26.391Z,98854.09
2022-12-17T20:13:59.624Z,98860.84
2022-12-17T20:16:26.767Z,98855.75
2022-12-17T20:18:53.224Z,98852.34
2022-12-17T20:21:19.720Z,98840.44
2022-12-17T20:23:49.569Z,98842.16
2022-12-17T20:26:16.402Z,98823.44
2022-12-17T20:28:42.892Z,98806.44
2022-12-17T20:31:09.358Z,98816.66
2022-12-17T20:33:35.793Z,98810.66
2022-12-17T20:36:05.572Z,98842.13
2022-12-17T20:38:32.093Z,98847.22
2022-12-17T20:40:58.456Z,98848.06
2022-12-17T20:43:25.056Z,98855.66
2022-12-17T20:45:51.882Z,98867.53
2022-12-17T20:48:18.311Z,98856.50
2022-12-17T20:50:44.952Z,98855.66
2022-12-17T20:53:11.460Z,98842.06
2022-12-17T20:55:37.809Z,98864.16
2022-12-17T20:58:04.214Z,98857.34
2022-12-17T21:00:30.575Z,98830.97
2022-12-17T21:02:57.131Z,98831.84
2022-12-17T21:05:23.919Z,98848.84
2022-12-17T21:07:50.970Z,98865.81
2022-12-17T21:10:17.440Z,98894.69
2022-12-17T21:13:02.295Z,98921.03
2022-12-17T21:15:28.672Z,98937.19
2022-12-17T21:17:55.033Z,98950.75
2022-12-17T21:20:21.711Z,98967.72
2022-12-17T21:22:48.281Z,98972.81
2022-12-17T21:25:14.633Z,98982.13
2022-12-17T21:27:40.984Z,98984.66
2022-12-17T21:30:10.435Z,98999.97
2022-12-17T21:32:39.916Z,99023.72
2022-12-17T21:35:06.757Z,99032.19
2022-12-17T21:37:33.179Z,99039.84
2022-12-17T21:40:00.051Z,99036.47
2022-12-17T21:42:45.002Z,99028.81
2022-12-17T21:45:11.341Z,99030.53
2022-12-17T21:47:37.824Z,99045.78
2022-12-17T21:50:04.504Z,99067.00
2022-12-17T21:52:30.865Z,99083.13
2022-12-17T21:54:57.212Z,99098.41
2022-12-17T21:57:23.597Z,99110.22
2022-12-17T21:59:50.195Z,99102.63
2022-12-17T22:02:18.132Z,99091.63
2022-12-17T22:04:44.877Z,99065.28
2022-12-17T22:07:16.271Z,99054.22
2022-12-17T22:10:16.900Z,99072.88
2022-12-17T22:13:02.543Z,99094.06
2022-12-17T22:15:34.301Z,99106.81
2022-12-17T22:18:08.714Z,99110.22
2022-12-17T22:20:35.144Z,99101.78
2022-12-17T22:23:04.732Z,99072.00
2022-12-17T22:25:31.282Z,99081.31
2022-12-17T22:27:57.632Z,99098.28
2022-12-17T22:30:42.655Z,99130.41
2022-12-17T22:33:21.394Z,99154.19
2022-12-17T22:36:51.675Z,99165.94
2022-12-17T22:42:39.972Z,99193.06
2022-12-17T22:44:41.584Z,99206.53
2022-12-17T22:44:53.070Z,99215.00
2022-12-17T22:47:21.183Z,99234.47
2022-12-17T22:49:47.553Z,99252.28
2022-12-17T22:52:13.994Z,99259.00
2022-12-17T22:54:41.886Z,99261.59
2022-12-17T22:57:35.158Z,99273.38
2022-12-17T22:59:57.790Z,99288.56
2022-12-17T23:02:24.311Z,99284.34
2022-12-17T23:04:50.748Z,99294.50
2022-12-17T23:07:17.138Z,99295.31
2022-12-17T23:09:43.556Z,99282.63
2022-12-17T23:12:28.241Z,99301.22
2022-12-17T23:14:54.632Z,99330.78
2022-12-17T23:17:20.992Z,99332.44
2022-12-17T23:19:47.346Z,99323.03
2022-12-17T23:22:22.031Z,99312.84
2022-12-17T23:24:48.785Z,99306.97
2022-12-17T23:27:15.306Z,99314.53
2022-12-17T23:29:41.718Z,99321.22
2022-12-17T23:32:08.082Z,99333.06
2022-12-17T23:34:34.684Z,99341.59
2022-12-17T23:37:01.063Z,99348.34
2022-12-17T23:39:27.472Z,99350.75
2022-12-17T23:41:54.400Z,99371.81
2022-12-17T23:44:20.779Z,99391.28
2022-12-17T23:46:47.137Z,99409.00
2022-12-17T23:49:14.919Z,99404.84
2022-12-17T23:51:41.280Z,99397.16
2022-12-17T23:54:07.614Z,99394.56
2022-12-17T23:56:33.971Z,99402.13
2022-12-17T23:59:01.059Z,99402.91
